Time;durP1;ratioP1;P1;durP2;ratioP2;P2;SDS_P1;SDS_P2;PMS_P1;PMS_P2;Temp;Humidity;BMP_temperature;BMP_pressure;BME280_temperature;BME280_humidity;BME280_pressure;Samples;Min_cycle;Max_cycle;Signal;HPM_P1;HPM_P2
2022/01/12 00:00:09;;;;;;;;;12.25;9.75;;;;;11.25;42.67;100240.44;6308216;22;101487;-84
2022/01/12 00:02:36;;;;;;;;;10.00;9.50;;;;;11.24;42.77;100239.59;6297958;22;104307;-84
2022/01/12 00:05:03;;;;;;;;;14.00;10.00;;;;;11.24;42.67;100238.75;6263908;22;102276;-84
2022/01/12 00:07:30;;;;;;;;;10.00;8.00;;;;;11.22;42.35;100248.88;6298268;22;102302;-84
2022/01/12 00:09:57;;;;;;;;;15.50;9.50;;;;;11.22;42.80;100247.00;6308363;22;102414;-84
2022/01/12 00:12:26;;;;;;;;;12.25;9.25;;;;;11.20;42.50;100243.66;6310246;22;104103;-84
2022/01/12 00:14:53;;;;;;;;;14.00;10.00;;;;;11.18;42.59;100251.91;6312922;22;102075;-84
2022/01/12 00:17:20;;;;;;;;;12.25;10.50;;;;;11.18;42.82;100245.66;6309851;22;101965;-83
2022/01/12 00:19:48;;;;;;;;;12.00;8.75;;;;;11.18;42.40;100251.06;6307750;22;102108;-84
2022/01/12 00:22:15;;;;;;;;;13.25;11.00;;;;;11.15;42.71;100251.41;6282125;22;109012;-84
2022/01/12 00:33:12;;;;;;;;;9.00;8.00;;;;;11.20;42.40;100265.31;6303399;22;111677;-78
2022/01/12 00:35:42;;;;;;;;;13.50;11.75;;;;;11.19;42.13;100252.78;6304725;22;102350;-79
2022/01/12 00:38:09;;;;;;;;;9.00;8.00;;;;;11.19;42.58;100255.47;6303674;22;102438;-79
2022/01/12 00:40:41;;;;;;;;;12.50;9.00;;;;;11.21;42.33;100261.59;6285914;22;102396;-78
2022/01/12 00:43:08;;;;;;;;;12.50;10.00;;;;;11.24;42.27;100255.84;6309115;22;103998;-78
2022/01/12 00:45:37;;;;;;;;;11.50;10.00;;;;;11.30;42.28;100263.28;6303451;22;102104;-78
2022/01/12 00:48:05;;;;;;;;;9.50;8.00;;;;;11.31;42.34;100261.41;6281119;22;102606;-78
2022/01/12 00:50:32;;;;;;;;;8.75;8.00;;;;;11.32;42.32;100263.13;6257634;22;102264;-78
2022/01/12 00:52:59;;;;;;;;;10.25;8.00;;;;;11.31;42.36;100262.28;6254904;22;103944;-78
2022/01/12 00:55:26;;;;;;;;;8.50;8.00;;;;;11.32;42.33;100258.56;6282107;22;102120;-78
2022/01/12 00:57:55;;;;;;;;;10.00;8.50;;;;;11.33;41.98;100256.69;6307614;22;109497;-78
2022/01/12 01:00:23;;;;;;;;;10.00;8.00;;;;;11.34;42.39;100259.25;6306109;22;102463;-78
2022/01/12 01:02:50;;;;;;;;;11.50;7.75;;;;;11.35;42.28;100269.06;6292527;22;103969;-78
2022/01/12 01:05:21;;;;;;;;;10.25;8.25;;;;;11.36;41.99;100268.03;6264499;22;102532;-78
2022/01/12 01:07:48;;;;;;;;;8.25;7.50;;;;;11.38;42.10;100267.88;6286197;22;102223;-78
2022/01/12 01:10:31;;;;;;;;;8.50;7.50;;;;;11.38;42.29;100260.63;6276988;22;102236;-78
2022/01/12 01:12:58;;;;;;;;;10.25;8.75;;;;;11.40;41.92;100272.13;6304757;22;108714;-78
2022/01/12 01:15:53;;;;;;;;;9.25;7.00;;;;;11.40;42.35;100266.69;6306445;22;102232;-78
2022/01/12 01:26:37;;;;;;;;;6.00;5.00;;;;;11.32;42.14;100255.00;6283429;22;102151;-78
2022/01/12 01:29:05;;;;;;;;;8.75;8.50;;;;;11.29;42.28;100255.34;6277275;22;102806;-78
2022/01/12 01:31:33;;;;;;;;;8.00;7.00;;;;;11.29;42.34;100267.03;6245044;22;102503;-79
2022/01/12 01:34:08;;;;;;;;;7.25;7.00;;;;;11.30;41.81;100266.00;6261209;22;106033;-78
2022/01/12 01:36:37;;;;;;;;;7.75;7.50;;;;;11.32;41.87;100272.09;6249351;22;102388;-78
2022/01/12 01:39:08;;;;;;;;;8.00;8.00;;;;;11.32;42.11;100271.25;6226913;22;109371;-78
2022/01/12 01:41:37;;;;;;;;;7.00;7.00;;;;;11.27;41.92;100260.06;6242238;22;102264;-78
2022/01/12 01:54:59;;;;;;;;;7.75;7.75;;;;;11.25;42.03;100262.09;6301865;22;109010;-78
2022/01/12 01:57:26;;;;;;;;;9.00;7.50;;;;;11.24;42.17;100265.81;6305654;22;101839;-78
2022/01/12 01:59:53;;;;;;;;;9.75;7.25;;;;;11.22;42.02;100263.25;6269726;22;101827;-78
2022/01/12 02:02:20;;;;;;;;;9.75;7.75;;;;;11.21;42.56;100261.59;6281220;22;102623;-78
2022/01/12 02:04:47;;;;;;;;;5.00;4.00;;;;;11.21;41.78;100269.72;6293288;22;104064;-78
2022/01/12 02:07:15;;;;;;;;;8.25;7.00;;;;;11.18;42.10;100268.16;6290152;22;102427;-77
2022/01/12 02:09:42;;;;;;;;;8.25;6.75;;;;;11.16;42.37;100259.38;6240557;22;102043;-78
2022/01/12 02:12:10;;;;;;;;;13.00;7.25;;;;;11.14;42.24;100255.97;6266899;22;102117;-79
2022/01/12 02:14:37;;;;;;;;;11.00;8.75;;;;;11.12;42.35;100252.56;6276937;22;103989;-79
2022/01/12 02:17:10;;;;;;;;;8.50;7.25;;;;;11.11;42.39;100250.03;6279680;22;102514;-79
2022/01/12 02:41:30;;;;;;;;;11.00;8.00;;;;;11.06;42.05;100263.22;6268761;22;102407;-78
2022/01/12 02:55:27;;;;;;;;;12.00;8.75;;;;;11.08;41.93;100253.06;6309741;22;102107;-78
2022/01/12 02:57:55;;;;;;;;;12.50;8.00;;;;;11.08;42.17;100261.19;6305367;22;104042;-79
2022/01/12 03:00:25;;;;;;;;;9.00;8.00;;;;;11.07;42.22;100248.69;6282616;22;102320;-80
2022/01/12 03:03:21;;;;;;;;;7.50;6.00;;;;;11.04;42.39;100243.56;6304350;22;102218;-83
2022/01/12 03:05:57;;;;;;;;;9.00;7.00;;;;;11.07;42.19;100237.84;6312366;22;102292;-83
2022/01/12 03:12:20;;;;;;;;;6.25;6.00;;;;;11.06;42.21;100241.56;6142130;22;102160;-78
2022/01/12 03:14:50;;;;;;;;;7.25;7.00;;;;;11.09;41.77;100247.50;6147614;22;102771;-78
2022/01/12 03:17:17;;;;;;;;;8.50;8.00;;;;;11.13;42.15;100240.72;6147382;22;102967;-78
2022/01/12 03:19:44;;;;;;;;;7.50;6.25;;;;;11.17;42.00;100239.38;6150820;22;103900;-78
2022/01/12 03:22:12;;;;;;;;;8.75;7.25;;;;;11.22;41.85;100243.47;6144038;22;102431;-78
2022/01/12 03:24:39;;;;;;;;;9.00;7.00;;;;;11.24;42.04;100245.00;6146630;22;102334;-78
2022/01/12 03:27:06;;;;;;;;;7.50;6.50;;;;;11.27;41.81;100243.81;6122723;22;102452;-78
2022/01/12 03:29:33;;;;;;;;;9.00;7.75;;;;;11.29;42.06;100247.22;6148974;22;103895;-79
2022/01/12 03:32:02;;;;;;;;;6.00;4.00;;;;;11.32;42.12;100253.16;6150308;22;102247;-78
2022/01/12 03:34:32;;;;;;;;;7.00;6.25;;;;;11.36;42.05;100259.91;6143593;22;102073;-78
2022/01/12 03:39:32;;;;;;;;;7.25;6.00;;;;;11.41;41.77;100256.72;6150772;22;103891;-78
2022/01/12 03:41:59;;;;;;;;;8.00;6.00;;;;;11.43;41.68;100263.69;6139128;22;102400;-79
2022/01/12 03:44:26;;;;;;;;;8.50;7.00;;;;;11.46;41.71;100266.03;6142758;22;102289;-78
2022/01/12 03:46:53;;;;;;;;;2.50;1.00;;;;;11.48;41.57;100272.13;6248198;22;102690;-79
2022/01/12 03:49:20;;;;;;;;;4.00;4.00;;;;;11.50;41.90;100278.25;6306020;22;104007;-78
2022/01/12 03:51:48;;;;;;;;;7.00;6.00;;;;;11.55;41.51;100266.91;6254580;22;102614;-79
2022/01/12 03:54:16;;;;;;;;;7.00;6.50;;;;;11.57;42.07;100268.41;6295151;22;102195;-78
2022/01/12 03:56:43;;;;;;;;;5.00;3.00;;;;;11.58;41.74;100264.72;6278480;22;104144;-78
2022/01/12 03:59:10;;;;;;;;;6.25;5.50;;;;;11.62;41.83;100266.06;6299507;22;103882;-78
2022/01/12 04:01:37;;;;;;;;;4.50;4.00;;;;;11.64;41.34;100272.19;6303247;22;102110;-78
2022/01/12 04:04:16;;;;;;;;;7.50;4.25;;;;;11.68;41.67;100271.84;6286510;22;107276;-78
2022/01/12 04:09:42;;;;;;;;;7.00;6.00;;;;;11.71;41.53;100268.81;6287209;22;108867;-78
2022/01/12 04:12:10;;;;;;;;;6.75;5.00;;;;;11.72;41.68;100270.47;6296429;22;102166;-78
2022/01/12 04:14:37;;;;;;;;;4.00;4.00;;;;;11.75;41.76;100270.19;6310403;22;102553;-78
2022/01/12 04:17:04;;;;;;;;;10.50;6.00;;;;;11.75;41.75;100281.88;6303342;22;102273;-78
2022/01/12 04:19:31;;;;;;;;;8.50;5.00;;;;;11.76;41.10;100283.56;6306820;22;104171;-79
2022/01/12 04:22:07;;;;;;;;;6.00;4.00;;;;;11.75;41.92;100278.31;6308728;22;101739;-78
2022/01/12 04:24:35;;;;;;;;;7.50;3.50;;;;;11.77;41.20;100277.13;6306787;22;102197;-83
2022/01/12 04:27:02;;;;;;;;;6.75;3.75;;;;;11.78;41.72;100276.13;6309164;22;102306;-83
2022/01/12 04:29:29;;;;;;;;;5.50;4.00;;;;;11.78;41.43;100270.69;6274987;22;104116;-84
2022/01/12 04:31:56;;;;;;;;;10.00;7.00;;;;;11.80;41.90;100267.81;6306628;22;102494;-84
2022/01/12 04:34:23;;;;;;;;;7.50;4.00;;;;;11.80;41.45;100271.38;6305148;22;102209;-80
2022/01/12 04:36:50;;;;;;;;;7.50;5.75;;;;;11.80;41.28;100263.22;6263680;22;102480;-83
2022/01/12 04:39:17;;;;;;;;;6.00;6.00;;;;;11.80;41.60;100275.94;6308990;22;104117;-83
2022/01/12 04:41:44;;;;;;;;;5.75;5.75;;;;;11.78;41.37;100272.56;6300971;22;102426;-82
2022/01/12 04:44:12;;;;;;;;;5.75;5.75;;;;;11.78;41.79;100276.13;6268115;22;102186;-83
2022/01/12 04:46:51;;;;;;;;;8.75;6.00;;;;;11.77;41.39;100271.72;6311599;22;102391;-82
2022/01/12 04:49:46;;;;;;;;;7.75;6.00;;;;;11.79;41.24;100287.81;6308385;22;108601;-83
2022/01/12 04:52:09;;;;;;;;;7.00;5.00;;;;;11.79;41.56;100282.41;6297401;22;102108;-83
2022/01/12 04:54:36;;;;;;;;;5.00;4.50;;;;;11.80;41.17;100284.06;6301821;22;102348;-83
2022/01/12 04:57:03;;;;;;;;;7.00;6.00;;;;;11.78;40.86;100280.69;6302298;22;105591;-82
2022/01/12 04:59:33;;;;;;;;;4.75;4.00;;;;;11.76;41.49;100282.72;6284172;22;104012;-83
2022/01/12 05:06:18;;;;;;;;;6.00;4.00;;;;;11.76;41.27;100282.72;6279228;22;101830;-83
2022/01/12 05:07:44;;;;;;;;;5.75;5.75;;;;;11.72;41.37;100287.63;6298856;22;104017;-83
2022/01/12 05:12:53;;;;;;;;;7.25;4.00;;;;;11.70;41.21;100288.78;6310679;22;102327;-83
2022/01/12 05:15:31;;;;;;;;;8.25;6.50;;;;;11.69;41.18;100290.66;6311802;22;102516;-83
2022/01/12 05:17:58;;;;;;;;;8.25;6.00;;;;;11.67;40.88;100278.25;6304531;22;102288;-83
2022/01/12 05:20:25;;;;;;;;;6.00;3.50;;;;;11.64;40.70;100280.31;6304983;22;104015;-83
2022/01/12 05:22:52;;;;;;;;;4.75;4.75;;;;;11.65;41.28;100286.56;6285086;22;102561;-83
2022/01/12 05:25:19;;;;;;;;;4.25;3.50;;;;;11.65;41.30;100292.00;6304864;22;102149;-83
2022/01/12 05:27:47;;;;;;;;;7.50;6.50;;;;;11.64;41.18;100279.44;6310363;22;102192;-83
2022/01/12 05:30:14;;;;;;;;;4.75;3.75;;;;;11.63;41.40;100289.44;6276587;22;103970;-77
2022/01/12 05:32:42;;;;;;;;;6.50;6.50;;;;;11.59;41.33;100288.09;6295154;22;103116;-77
2022/01/12 05:35:11;;;;;;;;;7.25;5.50;;;;;11.58;41.32;100282.81;6300856;22;102420;-78
2022/01/12 05:37:39;;;;;;;;;5.75;4.00;;;;;11.56;41.14;100283.00;6307615;22;102100;-78
2022/01/12 05:40:07;;;;;;;;;4.00;4.00;;;;;11.48;41.14;100285.66;6278868;22;103996;-78
2022/01/12 05:42:35;;;;;;;;;6.25;5.75;;;;;11.46;41.49;100287.72;6281491;22;102140;-77
2022/01/12 05:45:03;;;;;;;;;8.00;6.50;;;;;11.45;41.48;100291.44;6268808;22;102580;-78
2022/01/12 05:49:34;;;;;;;;;4.50;4.00;;;;;11.45;41.35;100296.00;6308217;22;102635;-77
2022/01/12 05:50:28;;;;;;;;;7.75;4.50;;;;;11.43;41.45;100311.59;6302760;22;108934;-77
2022/01/12 05:52:55;;;;;;;;;7.00;6.00;;;;;11.43;41.55;100307.03;6270588;22;102404;-78
2022/01/12 05:55:22;;;;;;;;;4.00;4.00;;;;;11.42;41.29;100301.75;6309935;22;102085;-78
2022/01/12 05:57:49;;;;;;;;;4.00;4.00;;;;;11.40;41.14;100310.03;6299422;22;102109;-77
2022/01/12 06:00:17;;;;;;;;;3.50;3.50;;;;;11.42;41.56;100305.31;6289030;22;104916;-78
2022/01/12 06:02:44;;;;;;;;;7.00;6.00;;;;;11.40;41.53;100312.75;6260883;22;102209;-83
2022/01/12 06:05:14;;;;;;;;;5.50;5.50;;;;;11.39;41.34;100307.50;6242490;22;103065;-83
2022/01/12 06:07:42;;;;;;;;;5.25;3.75;;;;;11.38;41.40;100309.38;6308209;22;102332;-82
2022/01/12 06:10:09;;;;;;;;;4.00;3.25;;;;;11.38;41.15;100317.50;6302348;22;104858;-83
2022/01/12 06:12:38;;;;;;;;;3.00;2.50;;;;;11.40;41.45;100323.56;6312700;22;102479;-83
2022/01/12 06:15:06;;;;;;;;;7.00;6.25;;;;;11.40;41.40;100331.69;6310545;22;102222;-83
2022/01/12 06:17:33;;;;;;;;;7.00;3.00;;;;;11.41;41.55;100333.41;6307234;22;102170;-83
2022/01/12 06:20:01;;;;;;;;;7.50;5.75;;;;;11.43;41.41;100335.97;6268069;22;104174;-78
2022/01/12 06:22:28;;;;;;;;;6.25;4.00;;;;;11.46;41.23;100341.88;6302638;22;102500;-77
2022/01/12 06:24:57;;;;;;;;;4.50;3.75;;;;;11.48;41.52;100334.44;6306198;22;102219;-78
2022/01/12 06:27:28;;;;;;;;;6.25;3.00;;;;;11.51;41.33;100328.69;6291869;22;103977;-77
2022/01/12 06:32:23;;;;;;;;;4.00;3.50;;;;;11.57;41.35;100325.31;6262723;22;102379;-79
2022/01/12 06:34:50;;;;;;;;;4.00;4.00;;;;;11.59;41.45;100326.00;6305648;22;102344;-77
2022/01/12 06:37:17;;;;;;;;;3.00;3.00;;;;;11.63;41.44;100331.94;6306373;22;102126;-77
2022/01/12 06:40:10;;;;;;;;;4.00;3.50;;;;;11.63;41.52;100332.78;6305402;22;104028;-77
2022/01/12 06:42:37;;;;;;;;;6.75;4.50;;;;;11.66;41.13;100333.50;6304651;22;102066;-77
2022/01/12 06:45:07;;;;;;;;;1.75;1.75;;;;;11.67;41.17;100338.72;6279291;22;102313;-76
2022/01/12 06:47:34;;;;;;;;;6.00;3.00;;;;;11.70;41.43;100335.69;6295525;22;102608;-77
2022/01/12 06:50:01;;;;;;;;;6.00;3.50;;;;;11.72;40.94;100330.09;6307376;22;103989;-78
2022/01/12 06:52:28;;;;;;;;;4.50;4.00;;;;;11.73;41.46;100334.53;6290026;22;102194;-82
2022/01/12 06:54:55;;;;;;;;;7.50;4.75;;;;;11.75;41.30;100332.53;6294208;22;102208;-82
2022/01/12 06:57:22;;;;;;;;;7.50;4.00;;;;;11.77;41.37;100344.88;6310971;22;102158;-83
2022/01/12 06:59:49;;;;;;;;;4.00;4.00;;;;;11.80;41.00;100338.25;6309526;22;108898;-82
2022/01/12 07:02:16;;;;;;;;;4.00;4.00;;;;;11.82;41.33;100352.50;6300864;22;102202;-83
2022/01/12 07:04:44;;;;;;;;;3.00;3.00;;;;;11.83;41.03;100346.09;6299904;22;102067;-82
2022/01/12 07:07:11;;;;;;;;;4.25;3.75;;;;;11.86;41.31;100359.28;6311417;22;102321;-82
2022/01/12 07:09:38;;;;;;;;;3.00;2.75;;;;;11.87;40.92;100352.88;6270770;22;103808;-83
2022/01/12 07:12:06;;;;;;;;;3.50;3.50;;;;;11.88;41.44;100363.56;6302503;22;102314;-78
2022/01/12 07:14:33;;;;;;;;;7.00;4.00;;;;;11.91;41.07;100356.94;6298786;22;102197;-77
2022/01/12 07:17:00;;;;;;;;;7.25;4.00;;;;;11.92;40.95;100347.78;6301190;22;102645;-77
2022/01/12 07:19:27;;;;;;;;;4.50;3.25;;;;;11.94;41.39;100357.44;6293799;22;104275;-77
2022/01/12 07:21:54;;;;;;;;;3.75;3.00;;;;;11.96;41.24;100360.00;6310443;22;102241;-77
2022/01/12 07:24:21;;;;;;;;;3.50;3.00;;;;;12.00;40.69;100364.06;6306521;22;102289;-78
2022/01/12 07:26:48;;;;;;;;;7.00;3.50;;;;;12.02;40.78;100353.91;6313084;22;102912;-77
2022/01/12 07:29:15;;;;;;;;;5.75;4.00;;;;;12.02;40.62;100349.31;6307054;22;103211;-77
2022/01/12 07:31:42;;;;;;;;;4.00;3.00;;;;;12.06;41.05;100366.13;6313032;22;102083;-77
2022/01/12 07:34:10;;;;;;;;;5.00;4.00;;;;;12.07;40.93;100356.94;6310494;22;108234;-77
2022/01/12 07:36:37;;;;;;;;;6.00;3.00;;;;;12.09;40.79;100368.50;6300650;22;102115;-77
2022/01/12 07:39:04;;;;;;;;;2.50;2.50;;;;;12.08;40.36;100364.94;6303834;22;104004;-77
2022/01/12 07:41:31;;;;;;;;;5.25;4.25;;;;;12.14;40.94;100368.84;6299779;22;102332;-78
2022/01/12 07:43:58;;;;;;;;;4.25;4.25;;;;;12.17;40.58;100371.19;6293759;22;102297;-77
2022/01/12 07:46:25;;;;;;;;;4.50;4.50;;;;;12.17;41.07;100376.63;6279584;22;102147;-78
2022/01/12 07:48:52;;;;;;;;;4.00;4.00;;;;;12.19;41.17;100376.47;6311019;22;104095;-78
2022/01/12 07:51:19;;;;;;;;;6.25;6.25;;;;;12.19;41.37;100374.59;6310635;22;102428;-78
2022/01/12 07:53:46;;;;;;;;;3.25;3.00;;;;;12.20;40.49;100370.88;6267929;22;102627;-78
2022/01/12 07:56:13;;;;;;;;;4.25;3.00;;;;;12.22;41.02;100382.41;6283825;22;102181;-77
2022/01/12 07:58:40;;;;;;;;;8.00;4.00;;;;;12.24;41.02;100385.81;6280490;22;103993;-78
2022/01/12 08:01:08;;;;;;;;;4.50;4.50;;;;;12.23;40.70;100389.53;6273095;22;102216;-78
2022/01/12 08:03:35;;;;;;;;;5.00;4.75;;;;;12.23;40.88;100383.25;6276103;22;102252;-78
2022/01/12 08:06:02;;;;;;;;;3.50;3.25;;;;;12.25;40.83;100373.06;6278054;22;102103;-78
2022/01/12 08:08:30;;;;;;;;;4.25;3.75;;;;;12.29;40.94;100382.59;6281076;22;104299;-77
2022/01/12 08:10:57;;;;;;;;;4.00;4.00;;;;;12.29;40.60;100388.84;6275324;22;102183;-77
2022/01/12 08:13:24;;;;;;;;;9.00;6.25;;;;;12.32;41.14;100398.53;6277806;22;102139;-78
2022/01/12 08:15:51;;;;;;;;;4.50;4.00;;;;;12.35;40.50;100399.03;6274053;22;102505;-78
2022/01/12 08:18:18;;;;;;;;;3.25;3.00;;;;;12.37;40.57;100402.44;6280073;22;103945;-78
2022/01/12 08:20:45;;;;;;;;;5.50;5.00;;;;;12.38;40.31;100398.66;6280199;22;103773;-78
2022/01/12 08:23:12;;;;;;;;;7.25;4.00;;;;;12.40;40.27;100406.66;6281238;22;102079;-78
2022/01/12 08:25:40;;;;;;;;;5.50;4.50;;;;;12.41;40.77;100401.06;6281714;22;102110;-78
2022/01/12 08:28:07;;;;;;;;;9.25;5.25;;;;;12.42;40.90;100400.06;6277828;22;104035;-77
2022/01/12 08:30:35;;;;;;;;;3.50;3.50;;;;;12.42;40.51;100394.63;6277494;22;102151;-78
2022/01/12 08:33:03;;;;;;;;;7.50;5.00;;;;;12.45;40.85;100390.72;6279772;22;102452;-77
2022/01/12 08:35:30;;;;;;;;;3.75;3.00;;;;;12.47;40.99;100394.94;6280524;22;102087;-78
2022/01/12 08:37:57;;;;;;;;;4.50;4.50;;;;;12.48;40.16;100388.50;6280984;22;104007;-77
2022/01/12 08:40:25;;;;;;;;;5.00;4.00;;;;;12.50;39.95;100391.91;6284065;22;102398;-77
2022/01/12 08:42:52;;;;;;;;;7.25;5.25;;;;;12.52;40.87;100391.72;6278589;22;102125;-77
2022/01/12 08:45:19;;;;;;;;;4.50;4.00;;;;;12.52;40.69;100389.88;6268101;22;102093;-77
2022/01/12 08:47:46;;;;;;;;;4.00;4.00;;;;;12.53;40.52;100391.56;6278640;22;103977;-78
2022/01/12 08:50:13;;;;;;;;;5.50;4.00;;;;;12.56;39.98;100401.25;6279721;22;102289;-77
2022/01/12 08:52:44;;;;;;;;;3.50;3.25;;;;;12.58;40.78;100398.34;6281635;22;109724;-78
2022/01/12 08:55:13;;;;;;;;;4.25;3.25;;;;;12.62;40.25;100407.84;6280758;22;102225;-77
2022/01/12 08:57:40;;;;;;;;;4.75;4.00;;;;;12.61;40.77;100414.31;6306049;22;104067;-78
2022/01/12 09:00:07;;;;;;;;;7.75;4.50;;;;;12.65;40.35;100419.22;6314661;22;102370;-77
2022/01/12 09:02:35;;;;;;;;;8.00;4.00;;;;;12.66;40.36;100418.19;6307657;22;102069;-77
2022/01/12 09:05:03;;;;;;;;;5.25;4.75;;;;;12.67;40.62;100409.03;6285312;22;102505;-77
2022/01/12 09:07:30;;;;;;;;;3.50;3.50;;;;;12.70;40.66;100416.00;6279622;22;103790;-77
2022/01/12 09:09:57;;;;;;;;;4.00;3.50;;;;;12.70;40.68;100410.56;6284517;22;102131;-77
2022/01/12 09:12:25;;;;;;;;;4.00;3.25;;;;;12.71;40.41;100399.53;6313836;22;102494;-78
2022/01/12 09:14:53;;;;;;;;;4.00;4.00;;;;;12.73;40.87;100404.78;6261378;22;102293;-78
2022/01/12 09:17:21;;;;;;;;;5.75;3.50;;;;;12.75;41.03;100400.03;6312425;22;104665;-78
2022/01/12 09:19:48;;;;;;;;;0.00;0.00;;;;;12.76;40.70;100396.31;6309475;22;102269;-77
2022/01/12 09:22:15;;;;;;;;;8.50;6.50;;;;;12.77;41.00;100393.44;6302852;22;102482;-77
2022/01/12 09:24:44;;;;;;;;;5.50;4.00;;;;;12.78;40.21;100386.97;6313477;22;102379;-79
2022/01/12 09:27:11;;;;;;;;;4.00;3.25;;;;;12.81;39.92;100373.06;6282118;22;103954;-77
2022/01/12 09:29:38;;;;;;;;;2.75;2.75;;;;;12.82;40.99;100368.47;6280715;22;102193;-78
2022/01/12 09:32:06;;;;;;;;;6.50;4.50;;;;;12.83;40.33;100375.59;6241227;22;102627;-77
2022/01/12 09:34:33;;;;;;;;;6.50;6.50;;;;;12.85;41.00;100377.13;6311424;22;102242;-77
2022/01/12 09:37:00;;;;;;;;;5.00;4.25;;;;;12.86;40.59;100362.53;6307224;22;104393;-77
2022/01/12 09:39:27;;;;;;;;;4.75;3.75;;;;;12.87;40.90;100364.22;6308344;22;102218;-77
2022/01/12 09:41:54;;;;;;;;;4.00;3.75;;;;;12.90;40.57;100360.31;6309217;22;102463;-79
2022/01/12 09:44:28;;;;;;;;;8.25;4.00;;;;;12.93;41.04;100354.53;6310522;22;102470;-79
2022/01/12 09:46:55;;;;;;;;;4.50;3.00;;;;;12.94;40.17;100356.22;6306766;22;108742;-79
2022/01/12 09:49:22;;;;;;;;;3.75;2.50;;;;;12.96;40.07;100359.63;6284703;22;101984;-79
2022/01/12 09:51:52;;;;;;;;;7.25;4.00;;;;;12.98;40.46;100365.72;6286395;22;102016;-79
2022/01/12 09:54:19;;;;;;;;;5.00;3.25;;;;;13.00;41.02;100365.56;6303710;22;102094;-79
2022/01/12 09:56:47;;;;;;;;;5.50;4.00;;;;;13.01;40.37;100364.53;6304525;22;103937;-79
2022/01/12 09:59:14;;;;;;;;;4.75;4.75;;;;;13.01;40.76;100373.53;6308452;22;102313;-79
2022/01/12 10:01:45;;;;;;;;;7.00;3.75;;;;;13.03;40.10;100376.06;6305049;22;104872;-79
2022/01/12 10:04:16;;;;;;;;;5.25;4.75;;;;;13.03;40.22;100371.47;6283251;22;102429;-79
2022/01/12 10:06:46;;;;;;;;;3.75;3.00;;;;;13.04;39.97;100358.75;6310794;22;103623;-79
2022/01/12 10:09:14;;;;;;;;;7.00;4.00;;;;;13.05;40.54;100363.16;6280060;22;101903;-78
2022/01/12 10:11:52;;;;;;;;;3.50;3.50;;;;;13.07;39.88;100361.97;6304182;22;102202;-76
2022/01/12 10:14:19;;;;;;;;;2.75;2.75;;;;;13.08;39.96;100351.94;6307849;22;102149;-79
2022/01/12 10:16:57;;;;;;;;;4.00;4.00;;;;;13.09;39.97;100349.06;6303029;22;104247;-77
2022/01/12 10:19:28;;;;;;;;;4.50;4.50;;;;;13.09;40.41;100348.22;6300837;22;102283;-77
2022/01/12 10:21:56;;;;;;;;;4.50;4.00;;;;;13.11;39.96;100346.19;6266460;22;102522;-77
2022/01/12 10:24:24;;;;;;;;;4.00;2.75;;;;;13.12;40.38;100337.88;6307559;22;102486;-78
2022/01/12 10:26:52;;;;;;;;;6.00;4.00;;;;;13.13;40.26;100336.00;6296635;22;103720;-78
2022/01/12 10:29:21;;;;;;;;;6.75;4.00;;;;;13.15;40.94;100331.28;6301087;22;102447;-78
2022/01/12 10:32:00;;;;;;;;;5.00;4.00;;;;;13.16;40.96;100325.63;6297622;22;102435;-78
2022/01/12 10:34:35;;;;;;;;;5.00;3.50;;;;;13.17;40.68;100326.50;6301673;22;102115;-78
2022/01/12 10:37:05;;;;;;;;;4.00;3.50;;;;;13.18;40.43;100323.59;6300293;22;109971;-78
2022/01/12 10:39:32;;;;;;;;;3.25;3.00;;;;;13.19;40.22;100333.44;6299649;22;102094;-78
2022/01/12 10:42:02;;;;;;;;;4.25;3.25;;;;;13.21;40.22;100338.69;6310842;22;101846;-78
2022/01/12 10:44:40;;;;;;;;;3.00;3.00;;;;;13.22;40.77;100346.69;6318846;22;102059;-78
2022/01/12 10:47:11;;;;;;;;;2.75;1.75;;;;;13.24;40.24;100343.75;6281078;22;104010;-78
2022/01/12 10:49:42;;;;;;;;;3.75;3.00;;;;;13.25;40.71;100315.59;6313309;22;102148;-78
2022/01/12 10:52:19;;;;;;;;;6.50;4.00;;;;;13.25;40.65;100319.16;6312224;22;102336;-78
2022/01/12 10:54:51;;;;;;;;;6.50;3.75;;;;;13.26;40.79;100306.41;6281606;22;102185;-79
2022/01/12 10:57:23;;;;;;;;;3.50;3.50;;;;;13.27;41.08;100299.97;6275551;22;103972;-79
2022/01/12 11:00:02;;;;;;;;;4.00;3.50;;;;;13.28;40.30;100307.91;6280644;22;102272;-78
2022/01/12 11:02:30;;;;;;;;;4.00;3.75;;;;;13.30;40.19;100311.31;6298362;22;102031;-78
2022/01/12 11:04:57;;;;;;;;;4.00;3.25;;;;;13.31;40.43;100310.31;6307029;22;102226;-78
2022/01/12 11:07:25;;;;;;;;;7.75;4.25;;;;;13.31;40.27;100310.31;6308875;22;108918;-78
2022/01/12 11:09:59;;;;;;;;;4.50;3.25;;;;;13.32;40.72;100300.28;6277086;22;102697;-78
2022/01/12 11:12:26;;;;;;;;;6.00;4.75;;;;;13.34;40.09;100309.09;6296984;22;102078;-78
2022/01/12 11:14:54;;;;;;;;;4.00;3.75;;;;;13.34;40.41;100307.22;6306169;22;102427;-79
2022/01/12 11:17:21;;;;;;;;;4.00;3.00;;;;;13.35;40.77;100308.94;6284674;22;103972;-78
2022/01/12 11:20:01;;;;;;;;;4.00;3.75;;;;;13.36;40.30;100313.34;6276503;22;102294;-85
2022/01/12 11:22:27;;;;;;;;;7.25;5.00;;;;;13.36;40.14;100305.19;6276643;22;102055;-84
2022/01/12 11:24:55;;;;;;;;;2.25;2.25;;;;;13.38;40.73;100284.09;6306746;22;102688;-84
2022/01/12 11:27:24;;;;;;;;;4.00;3.50;;;;;13.38;40.21;100288.69;6294988;22;103864;-84
2022/01/12 11:29:51;;;;;;;;;4.25;4.00;;;;;13.39;39.99;100284.97;6307430;22;102186;-84
2022/01/12 11:32:22;;;;;;;;;5.00;4.00;;;;;13.40;40.35;100282.06;6304928;22;102065;-84
2022/01/12 11:35:01;;;;;;;;;4.75;4.00;;;;;13.39;40.36;100269.50;6312599;22;102531;-79
2022/01/12 11:37:32;;;;;;;;;3.50;3.50;;;;;13.40;40.06;100290.22;6302933;22;108787;-78
2022/01/12 11:40:08;;;;;;;;;4.00;3.75;;;;;13.40;39.82;100292.09;6307509;22;101879;-84
2022/01/12 11:42:37;;;;;;;;;4.50;3.00;;;;;13.41;40.83;100299.22;6309318;22;102480;-84
2022/01/12 11:45:05;;;;;;;;;3.00;3.00;;;;;13.42;40.46;100310.94;6313949;22;102094;-83
2022/01/12 11:47:32;;;;;;;;;5.00;3.50;;;;;13.42;40.70;100305.50;6304934;22;103917;-84
2022/01/12 11:49:59;;;;;;;;;3.50;3.00;;;;;13.43;40.64;100291.72;6314070;22;102385;-84
2022/01/12 11:52:26;;;;;;;;;3.00;3.00;;;;;13.45;40.82;100299.72;6311821;22;102545;-83
2022/01/12 11:55:14;;;;;;;;;7.75;3.00;;;;;13.45;39.84;100289.69;6306016;22;102491;-84
2022/01/12 11:57:45;;;;;;;;;6.00;5.00;;;;;13.45;40.37;100289.69;6312021;22;108813;-84
2022/01/12 12:00:14;;;;;;;;;4.75;4.75;;;;;13.47;40.58;100293.06;6272000;22;102218;-84
2022/01/12 12:02:44;;;;;;;;;4.00;4.00;;;;;13.47;40.28;100284.91;6311264;22;102547;-84
2022/01/12 12:05:13;;;;;;;;;4.75;3.00;;;;;13.47;40.46;100278.63;6312653;22;102014;-84
2022/01/12 12:07:50;;;;;;;;;4.25;3.00;;;;;13.48;40.57;100273.03;6307991;22;103997;-84
2022/01/12 12:10:22;;;;;;;;;4.00;4.00;;;;;13.49;40.75;100285.59;6282179;22;102296;-84
2022/01/12 12:12:53;;;;;;;;;6.00;4.00;;;;;13.49;40.06;100290.19;6279212;22;102508;-84
2022/01/12 12:15:20;;;;;;;;;5.00;3.00;;;;;13.48;39.96;100294.75;6276345;22;102139;-84
2022/01/12 12:17:47;;;;;;;;;5.25;2.75;;;;;13.50;40.67;100291.88;6309543;22;104157;-84
2022/01/12 12:20:15;;;;;;;;;9.00;4.00;;;;;13.49;40.14;100284.75;6301707;22;102680;-83
2022/01/12 12:22:44;;;;;;;;;3.50;2.75;;;;;13.50;40.45;100270.13;6310551;22;101832;-78
2022/01/12 12:25:23;;;;;;;;;6.00;3.00;;;;;13.51;40.07;100269.13;6311559;22;105088;-78
2022/01/12 12:28:09;;;;;;;;;3.00;3.00;;;;;13.52;39.97;100259.91;6311586;22;104027;-78
2022/01/12 12:30:38;;;;;;;;;4.75;4.00;;;;;13.50;40.08;100260.13;6307643;22;102454;-78
2022/01/12 12:33:11;;;;;;;;;7.50;4.00;;;;;13.51;40.44;100274.56;6306187;22;102264;-78
2022/01/12 12:35:39;;;;;;;;;2.25;2.25;;;;;13.52;40.71;100285.22;6284126;22;102154;-79
2022/01/12 12:38:07;;;;;;;;;5.00;4.00;;;;;13.52;40.21;100277.06;6311858;22;103993;-78
2022/01/12 12:40:48;;;;;;;;;4.00;3.00;;;;;13.54;39.76;100276.91;6308381;22;102224;-78
2022/01/12 12:43:24;;;;;;;;;4.00;3.00;;;;;13.54;39.87;100287.78;6294485;22;102301;-78